Terminal Aerodrome Forecast
Issued by NWS Jackson, MS

Home | Current Version | Previous Version | Text Only | Print | Product List | Glossary On
Versions: 1 2 3 4 5 6 7 8 9 10 11 12 13 14 15 16 17 18 19 20
000
FTUS44 KJAN 191832 AAA
TAFHBG
TAF AMD
KHBG 191832Z 1919/2018 28007G19KT P6SM SCT030
     FM200900 23005KT 2SM BR OVC007
     FM201100 24008KT 1/2SM FG OVC001
     FM201500 28011G17KT 4SM HZ SCT015 OVC050=

USA.gov is the U.S. government's official web portal to all federal, state and local government web resources and services.